sensor_id;sensor_type;location;lat;lon;timestamp;P1;durP1;ratioP1;P2;durP2;ratioP2
44508;SDS011;30214;52.246;14.408;2023-04-16T00:00:38;7.78;;;6.10;;
44508;SDS011;30214;52.246;14.408;2023-04-16T00:03:06;8.48;;;5.38;;
44508;SDS011;30214;52.246;14.408;2023-04-16T00:05:35;9.57;;;5.95;;
44508;SDS011;30214;52.246;14.408;2023-04-16T00:08:02;8.95;;;6.03;;
44508;SDS011;30214;52.246;14.408;2023-04-16T00:10:29;7.72;;;5.80;;
44508;SDS011;30214;52.246;14.408;2023-04-16T00:12:57;7.65;;;5.78;;
44508;SDS011;30214;52.246;14.408;2023-04-16T00:15:25;9.60;;;6.28;;
44508;SDS011;30214;52.246;14.408;2023-04-16T00:17:52;9.60;;;6.47;;
44508;SDS011;30214;52.246;14.408;2023-04-16T00:20:20;8.52;;;6.70;;
44508;SDS011;30214;52.246;14.408;2023-04-16T00:22:49;8.60;;;6.80;;
44508;SDS011;30214;52.246;14.408;2023-04-16T00:25:16;8.15;;;6.50;;
44508;SDS011;30214;52.246;14.408;2023-04-16T00:27:44;10.27;;;6.65;;
44508;SDS011;30214;52.246;14.408;2023-04-16T00:30:11;10.63;;;7.45;;
44508;SDS011;30214;52.246;14.408;2023-04-16T00:32:39;8.27;;;6.57;;
44508;SDS011;30214;52.246;14.408;2023-04-16T00:35:06;8.85;;;6.75;;
44508;SDS011;30214;52.246;14.408;2023-04-16T00:37:34;7.35;;;6.22;;
44508;SDS011;30214;52.246;14.408;2023-04-16T00:40:03;8.43;;;6.40;;
44508;SDS011;30214;52.246;14.408;2023-04-16T00:42:31;10.40;;;6.68;;
44508;SDS011;30214;52.246;14.408;2023-04-16T00:44:59;7.28;;;6.22;;
44508;SDS011;30214;52.246;14.408;2023-04-16T00:47:26;8.70;;;5.93;;
44508;SDS011;30214;52.246;14.408;2023-04-16T00:49:53;8.48;;;5.57;;
44508;SDS011;30214;52.246;14.408;2023-04-16T00:52:21;8.90;;;5.28;;
44508;SDS011;30214;52.246;14.408;2023-04-16T00:54:49;7.10;;;5.63;;
44508;SDS011;30214;52.246;14.408;2023-04-16T00:57:19;6.88;;;5.43;;
44508;SDS011;30214;52.246;14.408;2023-04-16T00:59:48;5.85;;;4.88;;
44508;SDS011;30214;52.246;14.408;2023-04-16T01:02:15;7.95;;;5.18;;
44508;SDS011;30214;52.246;14.408;2023-04-16T01:04:43;7.50;;;4.97;;
44508;SDS011;30214;52.246;14.408;2023-04-16T01:07:10;5.93;;;4.85;;
44508;SDS011;30214;52.246;14.408;2023-04-16T01:09:37;6.20;;;4.82;;
44508;SDS011;30214;52.246;14.408;2023-04-16T01:12:04;5.95;;;4.55;;
44508;SDS011;30214;52.246;14.408;2023-04-16T01:14:33;10.40;;;5.40;;
44508;SDS011;30214;52.246;14.408;2023-04-16T01:17:01;5.88;;;4.82;;
44508;SDS011;30214;52.246;14.408;2023-04-16T01:19:29;7.30;;;4.95;;
44508;SDS011;30214;52.246;14.408;2023-04-16T01:21:58;6.25;;;4.68;;
44508;SDS011;30214;52.246;14.408;2023-04-16T01:24:25;6.47;;;4.72;;
44508;SDS011;30214;52.246;14.408;2023-04-16T01:26:52;7.57;;;4.70;;
44508;SDS011;30214;52.246;14.408;2023-04-16T01:29:19;5.90;;;5.22;;
44508;SDS011;30214;52.246;14.408;2023-04-16T01:31:48;7.53;;;4.80;;
44508;SDS011;30214;52.246;14.408;2023-04-16T01:34:23;6.63;;;4.55;;
44508;SDS011;30214;52.246;14.408;2023-04-16T01:36:50;6.93;;;4.85;;
44508;SDS011;30214;52.246;14.408;2023-04-16T01:39:19;6.78;;;5.50;;
44508;SDS011;30214;52.246;14.408;2023-04-16T01:41:46;6.15;;;5.18;;
44508;SDS011;30214;52.246;14.408;2023-04-16T01:44:14;6.75;;;5.07;;
44508;SDS011;30214;52.246;14.408;2023-04-16T01:46:41;7.28;;;5.40;;
44508;SDS011;30214;52.246;14.408;2023-04-16T01:49:09;7.18;;;5.35;;
44508;SDS011;30214;52.246;14.408;2023-04-16T01:51:36;6.85;;;5.10;;
44508;SDS011;30214;52.246;14.408;2023-04-16T01:54:03;7.30;;;5.22;;
44508;SDS011;30214;52.246;14.408;2023-04-16T01:56:32;6.28;;;4.72;;
44508;SDS011;30214;52.246;14.408;2023-04-16T01:58:59;7.28;;;5.18;;
44508;SDS011;30214;52.246;14.408;2023-04-16T02:01:32;6.17;;;5.30;;
44508;SDS011;30214;52.246;14.408;2023-04-16T02:04:00;6.40;;;4.97;;
44508;SDS011;30214;52.246;14.408;2023-04-16T02:06:27;5.78;;;5.00;;
44508;SDS011;30214;52.246;14.408;2023-04-16T02:08:55;6.18;;;5.25;;
44508;SDS011;30214;52.246;14.408;2023-04-16T02:11:24;7.15;;;5.30;;
44508;SDS011;30214;52.246;14.408;2023-04-16T02:13:53;7.57;;;5.88;;
44508;SDS011;30214;52.246;14.408;2023-04-16T02:16:20;6.55;;;5.28;;
44508;SDS011;30214;52.246;14.408;2023-04-16T02:18:55;8.55;;;6.13;;
44508;SDS011;30214;52.246;14.408;2023-04-16T02:21:23;8.18;;;6.28;;
44508;SDS011;30214;52.246;14.408;2023-04-16T02:23:52;8.82;;;6.22;;
44508;SDS011;30214;52.246;14.408;2023-04-16T02:26:24;10.05;;;6.40;;
44508;SDS011;30214;52.246;14.408;2023-04-16T02:28:58;7.80;;;6.60;;
44508;SDS011;30214;52.246;14.408;2023-04-16T02:31:33;7.82;;;5.85;;
44508;SDS011;30214;52.246;14.408;2023-04-16T02:34:01;7.40;;;6.10;;
44508;SDS011;30214;52.246;14.408;2023-04-16T02:36:30;8.00;;;5.72;;
44508;SDS011;30214;52.246;14.408;2023-04-16T02:38:58;10.45;;;5.97;;
44508;SDS011;30214;52.246;14.408;2023-04-16T02:41:25;7.28;;;5.95;;
44508;SDS011;30214;52.246;14.408;2023-04-16T02:43:52;7.43;;;5.85;;
44508;SDS011;30214;52.246;14.408;2023-04-16T02:46:22;7.55;;;6.50;;
44508;SDS011;30214;52.246;14.408;2023-04-16T02:48:49;9.65;;;6.45;;
44508;SDS011;30214;52.246;14.408;2023-04-16T02:51:16;8.27;;;6.10;;
44508;SDS011;30214;52.246;14.408;2023-04-16T02:53:43;8.68;;;6.50;;
44508;SDS011;30214;52.246;14.408;2023-04-16T02:56:11;7.63;;;6.20;;
44508;SDS011;30214;52.246;14.408;2023-04-16T02:58:38;9.82;;;6.13;;
44508;SDS011;30214;52.246;14.408;2023-04-16T03:01:06;7.30;;;5.80;;
44508;SDS011;30214;52.246;14.408;2023-04-16T03:03:34;7.40;;;6.07;;
44508;SDS011;30214;52.246;14.408;2023-04-16T03:06:01;12.98;;;6.30;;
44508;SDS011;30214;52.246;14.408;2023-04-16T03:08:31;6.75;;;5.60;;
44508;SDS011;30214;52.246;14.408;2023-04-16T03:10:58;8.30;;;6.40;;
44508;SDS011;30214;52.246;14.408;2023-04-16T03:13:25;8.00;;;6.25;;
44508;SDS011;30214;52.246;14.408;2023-04-16T03:15:53;10.85;;;6.10;;
44508;SDS011;30214;52.246;14.408;2023-04-16T03:18:20;7.70;;;6.28;;
44508;SDS011;30214;52.246;14.408;2023-04-16T03:20:51;9.45;;;6.50;;
44508;SDS011;30214;52.246;14.408;2023-04-16T03:23:19;8.27;;;6.35;;
44508;SDS011;30214;52.246;14.408;2023-04-16T03:25:46;8.52;;;6.70;;
44508;SDS011;30214;52.246;14.408;2023-04-16T03:28:16;9.85;;;6.65;;
44508;SDS011;30214;52.246;14.408;2023-04-16T03:30:49;8.63;;;6.45;;
44508;SDS011;30214;52.246;14.408;2023-04-16T03:33:17;7.95;;;6.05;;
44508;SDS011;30214;52.246;14.408;2023-04-16T03:35:44;7.82;;;5.90;;
44508;SDS011;30214;52.246;14.408;2023-04-16T03:38:14;8.57;;;6.30;;
44508;SDS011;30214;52.246;14.408;2023-04-16T03:40:41;9.30;;;6.18;;
44508;SDS011;30214;52.246;14.408;2023-04-16T03:43:09;8.55;;;6.10;;
44508;SDS011;30214;52.246;14.408;2023-04-16T03:45:42;7.72;;;6.60;;
44508;SDS011;30214;52.246;14.408;2023-04-16T03:48:10;8.00;;;6.68;;
44508;SDS011;30214;52.246;14.408;2023-04-16T03:50:37;8.93;;;7.10;;
44508;SDS011;30214;52.246;14.408;2023-04-16T03:53:07;10.23;;;6.80;;
44508;SDS011;30214;52.246;14.408;2023-04-16T03:55:36;8.23;;;7.13;;
44508;SDS011;30214;52.246;14.408;2023-04-16T03:58:08;12.50;;;6.97;;
44508;SDS011;30214;52.246;14.408;2023-04-16T04:00:35;8.85;;;6.85;;
44508;SDS011;30214;52.246;14.408;2023-04-16T04:03:09;10.00;;;6.70;;
44508;SDS011;30214;52.246;14.408;2023-04-16T04:05:37;9.15;;;7.30;;
44508;SDS011;30214;52.246;14.408;2023-04-16T04:08:08;8.30;;;6.75;;
44508;SDS011;30214;52.246;14.408;2023-04-16T04:10:37;9.85;;;6.50;;
44508;SDS011;30214;52.246;14.408;2023-04-16T04:13:06;10.88;;;6.30;;
44508;SDS011;30214;52.246;14.408;2023-04-16T04:15:34;9.13;;;6.35;;
44508;SDS011;30214;52.246;14.408;2023-04-16T04:18:02;8.32;;;6.40;;
44508;SDS011;30214;52.246;14.408;2023-04-16T04:20:29;8.82;;;6.70;;
44508;SDS011;30214;52.246;14.408;2023-04-16T04:22:57;8.20;;;6.25;;
44508;SDS011;30214;52.246;14.408;2023-04-16T04:25:25;8.70;;;6.28;;
44508;SDS011;30214;52.246;14.408;2023-04-16T04:27:54;11.45;;;6.18;;
44508;SDS011;30214;52.246;14.408;2023-04-16T04:30:21;8.65;;;6.38;;
44508;SDS011;30214;52.246;14.408;2023-04-16T04:32:48;9.13;;;6.13;;
44508;SDS011;30214;52.246;14.408;2023-04-16T04:35:16;8.00;;;5.88;;
44508;SDS011;30214;52.246;14.408;2023-04-16T04:37:43;8.23;;;5.88;;
44508;SDS011;30214;52.246;14.408;2023-04-16T04:40:14;7.70;;;5.55;;
44508;SDS011;30214;52.246;14.408;2023-04-16T04:42:42;6.20;;;5.30;;
44508;SDS011;30214;52.246;14.408;2023-04-16T04:45:11;7.20;;;5.68;;
44508;SDS011;30214;52.246;14.408;2023-04-16T04:47:39;7.10;;;5.30;;
44508;SDS011;30214;52.246;14.408;2023-04-16T04:50:07;7.68;;;5.82;;
44508;SDS011;30214;52.246;14.408;2023-04-16T04:52:36;5.53;;;4.75;;
44508;SDS011;30214;52.246;14.408;2023-04-16T04:55:05;6.38;;;5.03;;
44508;SDS011;30214;52.246;14.408;2023-04-16T04:57:34;7.00;;;5.20;;
44508;SDS011;30214;52.246;14.408;2023-04-16T05:00:02;6.93;;;5.20;;
44508;SDS011;30214;52.246;14.408;2023-04-16T05:02:40;6.05;;;4.93;;
44508;SDS011;30214;52.246;14.408;2023-04-16T05:05:08;8.57;;;5.90;;
44508;SDS011;30214;52.246;14.408;2023-04-16T05:07:35;8.55;;;6.10;;
44508;SDS011;30214;52.246;14.408;2023-04-16T05:10:02;9.45;;;6.30;;
44508;SDS011;30214;52.246;14.408;2023-04-16T05:12:30;9.05;;;6.35;;
44508;SDS011;30214;52.246;14.408;2023-04-16T05:14:57;7.60;;;6.53;;
44508;SDS011;30214;52.246;14.408;2023-04-16T05:17:24;7.72;;;6.80;;
44508;SDS011;30214;52.246;14.408;2023-04-16T05:19:53;9.95;;;7.50;;
44508;SDS011;30214;52.246;14.408;2023-04-16T05:22:20;10.00;;;7.78;;
44508;SDS011;30214;52.246;14.408;2023-04-16T05:24:47;8.63;;;7.20;;
44508;SDS011;30214;52.246;14.408;2023-04-16T05:27:14;8.98;;;7.68;;
44508;SDS011;30214;52.246;14.408;2023-04-16T05:29:41;8.30;;;7.30;;
44508;SDS011;30214;52.246;14.408;2023-04-16T05:32:09;9.23;;;7.35;;
44508;SDS011;30214;52.246;14.408;2023-04-16T05:34:37;9.38;;;6.95;;
44508;SDS011;30214;52.246;14.408;2023-04-16T05:37:05;8.60;;;7.00;;
44508;SDS011;30214;52.246;14.408;2023-04-16T05:39:32;7.80;;;6.55;;
44508;SDS011;30214;52.246;14.408;2023-04-16T05:41:59;7.45;;;6.00;;
44508;SDS011;30214;52.246;14.408;2023-04-16T05:44:27;8.20;;;6.03;;
44508;SDS011;30214;52.246;14.408;2023-04-16T05:46:54;7.40;;;6.20;;
44508;SDS011;30214;52.246;14.408;2023-04-16T05:49:21;6.35;;;5.45;;
44508;SDS011;30214;52.246;14.408;2023-04-16T05:51:48;6.10;;;5.05;;
44508;SDS011;30214;52.246;14.408;2023-04-16T05:54:17;7.40;;;5.85;;
44508;SDS011;30214;52.246;14.408;2023-04-16T05:56:44;6.05;;;4.85;;
44508;SDS011;30214;52.246;14.408;2023-04-16T05:59:12;6.38;;;4.85;;
44508;SDS011;30214;52.246;14.408;2023-04-16T06:01:39;6.10;;;4.80;;
44508;SDS011;30214;52.246;14.408;2023-04-16T06:04:06;5.10;;;4.40;;
44508;SDS011;30214;52.246;14.408;2023-04-16T06:06:34;6.18;;;4.20;;
44508;SDS011;30214;52.246;14.408;2023-04-16T06:09:02;4.63;;;3.80;;
44508;SDS011;30214;52.246;14.408;2023-04-16T06:11:30;5.43;;;4.47;;
44508;SDS011;30214;52.246;14.408;2023-04-16T06:13:58;4.65;;;4.10;;
44508;SDS011;30214;52.246;14.408;2023-04-16T06:16:25;7.07;;;4.00;;
44508;SDS011;30214;52.246;14.408;2023-04-16T06:18:52;4.70;;;4.10;;
44508;SDS011;30214;52.246;14.408;2023-04-16T06:21:19;4.78;;;4.07;;
44508;SDS011;30214;52.246;14.408;2023-04-16T06:23:47;5.03;;;4.15;;
44508;SDS011;30214;52.246;14.408;2023-04-16T06:26:17;5.97;;;4.20;;
44508;SDS011;30214;52.246;14.408;2023-04-16T06:28:46;5.00;;;4.35;;
44508;SDS011;30214;52.246;14.408;2023-04-16T06:31:13;6.25;;;4.45;;
44508;SDS011;30214;52.246;14.408;2023-04-16T06:33:40;6.13;;;5.22;;
44508;SDS011;30214;52.246;14.408;2023-04-16T06:36:08;10.30;;;6.32;;
44508;SDS011;30214;52.246;14.408;2023-04-16T06:38:35;8.68;;;6.70;;
44508;SDS011;30214;52.246;14.408;2023-04-16T06:41:02;9.68;;;6.97;;
44508;SDS011;30214;52.246;14.408;2023-04-16T06:43:30;10.63;;;7.88;;
44508;SDS011;30214;52.246;14.408;2023-04-16T06:45:59;10.20;;;8.07;;
44508;SDS011;30214;52.246;14.408;2023-04-16T06:48:26;11.57;;;8.05;;
44508;SDS011;30214;52.246;14.408;2023-04-16T06:50:54;12.88;;;8.20;;
44508;SDS011;30214;52.246;14.408;2023-04-16T06:53:22;11.65;;;8.57;;
44508;SDS011;30214;52.246;14.408;2023-04-16T06:55:51;12.60;;;8.98;;
44508;SDS011;30214;52.246;14.408;2023-04-16T06:58:18;10.30;;;8.55;;
44508;SDS011;30214;52.246;14.408;2023-04-16T07:00:46;14.27;;;8.65;;
44508;SDS011;30214;52.246;14.408;2023-04-16T07:03:15;10.23;;;8.27;;
44508;SDS011;30214;52.246;14.408;2023-04-16T07:05:42;13.20;;;8.57;;
44508;SDS011;30214;52.246;14.408;2023-04-16T07:08:09;11.73;;;8.77;;
44508;SDS011;30214;52.246;14.408;2023-04-16T07:10:36;10.95;;;8.35;;
44508;SDS011;30214;52.246;14.408;2023-04-16T07:13:04;10.57;;;8.38;;
44508;SDS011;30214;52.246;14.408;2023-04-16T07:15:31;13.20;;;8.65;;
44508;SDS011;30214;52.246;14.408;2023-04-16T07:17:58;10.63;;;7.95;;
44508;SDS011;30214;52.246;14.408;2023-04-16T07:20:26;9.07;;;7.53;;
44508;SDS011;30214;52.246;14.408;2023-04-16T07:22:53;11.95;;;7.07;;
44508;SDS011;30214;52.246;14.408;2023-04-16T07:25:22;7.07;;;5.25;;
44508;SDS011;30214;52.246;14.408;2023-04-16T07:27:49;7.68;;;5.18;;
44508;SDS011;30214;52.246;14.408;2023-04-16T07:30:17;7.97;;;5.03;;
44508;SDS011;30214;52.246;14.408;2023-04-16T07:32:44;6.55;;;5.25;;
44508;SDS011;30214;52.246;14.408;2023-04-16T07:35:11;7.68;;;5.57;;
44508;SDS011;30214;52.246;14.408;2023-04-16T07:37:40;9.38;;;5.70;;
44508;SDS011;30214;52.246;14.408;2023-04-16T07:40:07;6.88;;;4.22;;
44508;SDS011;30214;52.246;14.408;2023-04-16T07:42:35;5.00;;;3.90;;
44508;SDS011;30214;52.246;14.408;2023-04-16T07:45:02;4.32;;;3.78;;
44508;SDS011;30214;52.246;14.408;2023-04-16T07:47:31;5.60;;;3.47;;
44508;SDS011;30214;52.246;14.408;2023-04-16T07:49:58;4.00;;;3.40;;
44508;SDS011;30214;52.246;14.408;2023-04-16T07:52:27;4.32;;;3.22;;
44508;SDS011;30214;52.246;14.408;2023-04-16T07:54:58;4.30;;;3.05;;
44508;SDS011;30214;52.246;14.408;2023-04-16T07:57:29;3.95;;;3.10;;
44508;SDS011;30214;52.246;14.408;2023-04-16T07:59:57;3.85;;;3.08;;
44508;SDS011;30214;52.246;14.408;2023-04-16T08:02:26;4.20;;;3.50;;
44508;SDS011;30214;52.246;14.408;2023-04-16T08:04:53;3.78;;;3.15;;
44508;SDS011;30214;52.246;14.408;2023-04-16T08:07:22;4.57;;;3.60;;
44508;SDS011;30214;52.246;14.408;2023-04-16T08:09:50;4.20;;;3.30;;
44508;SDS011;30214;52.246;14.408;2023-04-16T08:12:19;6.47;;;3.08;;
44508;SDS011;30214;52.246;14.408;2023-04-16T08:14:46;4.53;;;3.30;;
44508;SDS011;30214;52.246;14.408;2023-04-16T08:17:14;6.78;;;3.50;;
44508;SDS011;30214;52.246;14.408;2023-04-16T08:19:42;5.45;;;3.80;;
44508;SDS011;30214;52.246;14.408;2023-04-16T08:22:10;6.07;;;4.82;;
44508;SDS011;30214;52.246;14.408;2023-04-16T08:24:37;4.68;;;3.42;;
44508;SDS011;30214;52.246;14.408;2023-04-16T08:27:06;4.63;;;3.03;;
44508;SDS011;30214;52.246;14.408;2023-04-16T08:29:36;4.15;;;3.50;;
44508;SDS011;30214;52.246;14.408;2023-04-16T08:32:04;4.18;;;2.60;;
44508;SDS011;30214;52.246;14.408;2023-04-16T08:34:33;3.13;;;2.22;;
44508;SDS011;30214;52.246;14.408;2023-04-16T08:37:01;4.40;;;2.70;;
44508;SDS011;30214;52.246;14.408;2023-04-16T08:39:28;4.18;;;2.40;;
44508;SDS011;30214;52.246;14.408;2023-04-16T08:41:55;3.55;;;2.70;;
44508;SDS011;30214;52.246;14.408;2023-04-16T08:44:24;3.20;;;2.30;;
44508;SDS011;30214;52.246;14.408;2023-04-16T08:46:55;3.20;;;2.22;;
44508;SDS011;30214;52.246;14.408;2023-04-16T08:49:24;3.25;;;2.45;;
44508;SDS011;30214;52.246;14.408;2023-04-16T08:51:54;4.22;;;2.90;;
44508;SDS011;30214;52.246;14.408;2023-04-16T08:54:33;4.03;;;2.50;;
44508;SDS011;30214;52.246;14.408;2023-04-16T08:57:05;2.93;;;2.27;;
44508;SDS011;30214;52.246;14.408;2023-04-16T08:59:37;3.53;;;2.40;;
44508;SDS011;30214;52.246;14.408;2023-04-16T09:02:07;3.03;;;2.08;;
44508;SDS011;30214;52.246;14.408;2023-04-16T09:04:37;3.47;;;2.60;;
44508;SDS011;30214;52.246;14.408;2023-04-16T09:07:07;3.53;;;2.20;;
44508;SDS011;30214;52.246;14.408;2023-04-16T09:09:35;3.58;;;2.38;;
44508;SDS011;30214;52.246;14.408;2023-04-16T09:12:04;2.72;;;2.10;;
44508;SDS011;30214;52.246;14.408;2023-04-16T09:14:34;3.28;;;2.20;;
44508;SDS011;30214;52.246;14.408;2023-04-16T09:17:09;2.90;;;1.85;;
44508;SDS011;30214;52.246;14.408;2023-04-16T09:19:39;3.83;;;2.28;;
44508;SDS011;30214;52.246;14.408;2023-04-16T09:22:07;3.50;;;2.33;;
44508;SDS011;30214;52.246;14.408;2023-04-16T09:24:34;5.50;;;2.05;;
44508;SDS011;30214;52.246;14.408;2023-04-16T09:27:03;2.88;;;2.03;;
44508;SDS011;30214;52.246;14.408;2023-04-16T09:29:32;4.00;;;1.98;;
44508;SDS011;30214;52.246;14.408;2023-04-16T09:32:01;4.65;;;2.03;;
44508;SDS011;30214;52.246;14.408;2023-04-16T09:34:32;3.05;;;1.98;;
44508;SDS011;30214;52.246;14.408;2023-04-16T09:37:15;4.07;;;2.10;;
44508;SDS011;30214;52.246;14.408;2023-04-16T09:39:43;6.82;;;2.60;;
44508;SDS011;30214;52.246;14.408;2023-04-16T09:42:20;4.20;;;2.13;;
44508;SDS011;30214;52.246;14.408;2023-04-16T09:44:48;3.42;;;2.40;;
44508;SDS011;30214;52.246;14.408;2023-04-16T09:47:16;3.08;;;1.80;;
44508;SDS011;30214;52.246;14.408;2023-04-16T09:49:45;3.42;;;2.00;;
44508;SDS011;30214;52.246;14.408;2023-04-16T09:52:13;2.90;;;1.90;;
44508;SDS011;30214;52.246;14.408;2023-04-16T09:54:47;3.95;;;1.83;;
44508;SDS011;30214;52.246;14.408;2023-04-16T09:57:17;3.72;;;2.15;;
44508;SDS011;30214;52.246;14.408;2023-04-16T09:59:46;2.70;;;1.70;;
44508;SDS011;30214;52.246;14.408;2023-04-16T10:02:13;2.80;;;1.80;;
44508;SDS011;30214;52.246;14.408;2023-04-16T10:04:46;3.60;;;1.90;;
44508;SDS011;30214;52.246;14.408;2023-04-16T10:07:14;2.90;;;1.70;;
44508;SDS011;30214;52.246;14.408;2023-04-16T10:09:41;3.30;;;1.70;;
44508;SDS011;30214;52.246;14.408;2023-04-16T10:12:09;3.00;;;1.67;;
44508;SDS011;30214;52.246;14.408;2023-04-16T10:14:37;3.08;;;1.60;;
44508;SDS011;30214;52.246;14.408;2023-04-16T10:17:05;2.33;;;1.40;;
44508;SDS011;30214;52.246;14.408;2023-04-16T10:19:36;2.67;;;1.60;;
44508;SDS011;30214;52.246;14.408;2023-04-16T10:22:08;2.00;;;1.30;;
44508;SDS011;30214;52.246;14.408;2023-04-16T10:24:36;2.70;;;1.50;;
44508;SDS011;30214;52.246;14.408;2023-04-16T10:27:07;2.75;;;1.30;;
44508;SDS011;30214;52.246;14.408;2023-04-16T10:29:37;3.28;;;1.40;;
44508;SDS011;30214;52.246;14.408;2023-04-16T10:32:07;2.35;;;1.48;;
44508;SDS011;30214;52.246;14.408;2023-04-16T10:34:35;2.30;;;1.58;;
44508;SDS011;30214;52.246;14.408;2023-04-16T10:37:02;2.67;;;2.00;;
44508;SDS011;30214;52.246;14.408;2023-04-16T10:39:30;2.25;;;1.48;;
44508;SDS011;30214;52.246;14.408;2023-04-16T10:42:08;2.53;;;1.70;;
44508;SDS011;30214;52.246;14.408;2023-04-16T10:44:36;2.55;;;1.40;;
44508;SDS011;30214;52.246;14.408;2023-04-16T10:47:08;2.65;;;1.60;;
44508;SDS011;30214;52.246;14.408;2023-04-16T10:49:37;2.50;;;1.40;;
44508;SDS011;30214;52.246;14.408;2023-04-16T10:52:07;2.50;;;1.67;;
44508;SDS011;30214;52.246;14.408;2023-04-16T10:54:38;2.75;;;1.45;;
44508;SDS011;30214;52.246;14.408;2023-04-16T10:57:07;4.72;;;2.20;;
44508;SDS011;30214;52.246;14.408;2023-04-16T10:59:40;3.25;;;1.67;;
44508;SDS011;30214;52.246;14.408;2023-04-16T11:02:10;5.65;;;1.80;;
44508;SDS011;30214;52.246;14.408;2023-04-16T11:04:41;3.78;;;1.90;;
44508;SDS011;30214;52.246;14.408;2023-04-16T11:07:17;4.43;;;1.90;;
44508;SDS011;30214;52.246;14.408;2023-04-16T11:09:56;3.72;;;2.20;;
44508;SDS011;30214;52.246;14.408;2023-04-16T11:12:30;4.50;;;2.00;;
44508;SDS011;30214;52.246;14.408;2023-04-16T11:15:01;3.60;;;1.95;;
44508;SDS011;30214;52.246;14.408;2023-04-16T11:17:31;3.35;;;2.08;;
44508;SDS011;30214;52.246;14.408;2023-04-16T11:20:02;3.53;;;2.05;;
44508;SDS011;30214;52.246;14.408;2023-04-16T11:22:32;3.10;;;1.80;;
44508;SDS011;30214;52.246;14.408;2023-04-16T11:25:03;3.17;;;1.92;;
44508;SDS011;30214;52.246;14.408;2023-04-16T11:27:31;3.25;;;1.90;;
44508;SDS011;30214;52.246;14.408;2023-04-16T11:29:59;3.90;;;1.92;;
44508;SDS011;30214;52.246;14.408;2023-04-16T11:32:30;3.75;;;1.85;;
44508;SDS011;30214;52.246;14.408;2023-04-16T11:34:57;4.45;;;1.77;;
44508;SDS011;30214;52.246;14.408;2023-04-16T11:37:31;3.78;;;1.80;;
44508;SDS011;30214;52.246;14.408;2023-04-16T11:39:59;2.42;;;1.60;;
44508;SDS011;30214;52.246;14.408;2023-04-16T11:42:30;2.70;;;1.60;;
44508;SDS011;30214;52.246;14.408;2023-04-16T11:44:58;2.80;;;1.92;;
44508;SDS011;30214;52.246;14.408;2023-04-16T11:47:27;2.85;;;1.75;;
44508;SDS011;30214;52.246;14.408;2023-04-16T11:49:56;3.28;;;1.80;;
44508;SDS011;30214;52.246;14.408;2023-04-16T11:52:23;3.33;;;1.90;;
44508;SDS011;30214;52.246;14.408;2023-04-16T11:54:52;2.88;;;1.80;;
44508;SDS011;30214;52.246;14.408;2023-04-16T11:57:25;3.10;;;1.98;;
44508;SDS011;30214;52.246;14.408;2023-04-16T11:59:56;4.68;;;2.13;;
44508;SDS011;30214;52.246;14.408;2023-04-16T12:02:34;5.05;;;1.88;;
44508;SDS011;30214;52.246;14.408;2023-04-16T12:05:07;3.45;;;1.70;;
44508;SDS011;30214;52.246;14.408;2023-04-16T12:07:52;3.17;;;2.00;;
44508;SDS011;30214;52.246;14.408;2023-04-16T12:10:20;3.03;;;2.05;;
44508;SDS011;30214;52.246;14.408;2023-04-16T12:12:47;3.88;;;2.30;;
44508;SDS011;30214;52.246;14.408;2023-04-16T12:15:16;2.80;;;2.05;;
44508;SDS011;30214;52.246;14.408;2023-04-16T12:17:43;3.38;;;2.28;;
44508;SDS011;30214;52.246;14.408;2023-04-16T12:20:11;4.05;;;3.00;;
44508;SDS011;30214;52.246;14.408;2023-04-16T12:22:43;3.83;;;2.80;;
44508;SDS011;30214;52.246;14.408;2023-04-16T12:25:12;3.97;;;2.88;;
44508;SDS011;30214;52.246;14.408;2023-04-16T12:27:41;4.43;;;3.10;;
44508;SDS011;30214;52.246;14.408;2023-04-16T12:30:13;4.13;;;2.70;;
44508;SDS011;30214;52.246;14.408;2023-04-16T12:32:44;3.90;;;3.05;;
44508;SDS011;30214;52.246;14.408;2023-04-16T12:35:13;3.50;;;2.42;;
44508;SDS011;30214;52.246;14.408;2023-04-16T12:37:55;4.65;;;2.30;;
44508;SDS011;30214;52.246;14.408;2023-04-16T12:40:23;2.75;;;2.00;;
44508;SDS011;30214;52.246;14.408;2023-04-16T12:42:50;2.60;;;1.90;;
44508;SDS011;30214;52.246;14.408;2023-04-16T12:45:19;3.58;;;2.33;;
44508;SDS011;30214;52.246;14.408;2023-04-16T12:47:46;3.83;;;2.08;;
44508;SDS011;30214;52.246;14.408;2023-04-16T12:50:14;2.78;;;2.00;;
44508;SDS011;30214;52.246;14.408;2023-04-16T12:52:41;3.28;;;2.40;;
44508;SDS011;30214;52.246;14.408;2023-04-16T12:55:09;3.58;;;2.55;;
44508;SDS011;30214;52.246;14.408;2023-04-16T12:57:38;2.83;;;2.03;;
44508;SDS011;30214;52.246;14.408;2023-04-16T13:00:05;2.97;;;1.98;;
44508;SDS011;30214;52.246;14.408;2023-04-16T13:02:35;5.82;;;2.05;;
44508;SDS011;30214;52.246;14.408;2023-04-16T13:05:03;3.55;;;2.25;;
44508;SDS011;30214;52.246;14.408;2023-04-16T13:07:30;4.47;;;2.30;;
44508;SDS011;30214;52.246;14.408;2023-04-16T13:09:58;4.75;;;2.35;;
44508;SDS011;30214;52.246;14.408;2023-04-16T13:12:25;4.35;;;2.60;;
44508;SDS011;30214;52.246;14.408;2023-04-16T13:14:54;4.43;;;2.90;;
44508;SDS011;30214;52.246;14.408;2023-04-16T13:17:21;3.67;;;2.53;;
44508;SDS011;30214;52.246;14.408;2023-04-16T13:19:49;3.40;;;2.78;;
44508;SDS011;30214;52.246;14.408;2023-04-16T13:22:16;3.33;;;2.72;;
44508;SDS011;30214;52.246;14.408;2023-04-16T13:24:44;4.68;;;2.70;;
44508;SDS011;30214;52.246;14.408;2023-04-16T13:27:12;4.00;;;2.70;;
44508;SDS011;30214;52.246;14.408;2023-04-16T13:29:41;4.07;;;2.92;;
44508;SDS011;30214;52.246;14.408;2023-04-16T13:32:09;3.35;;;2.72;;
44508;SDS011;30214;52.246;14.408;2023-04-16T13:34:38;3.70;;;2.90;;
44508;SDS011;30214;52.246;14.408;2023-04-16T13:37:07;5.05;;;2.65;;
44508;SDS011;30214;52.246;14.408;2023-04-16T13:39:34;4.40;;;2.92;;
44508;SDS011;30214;52.246;14.408;2023-04-16T13:42:01;3.88;;;2.60;;
44508;SDS011;30214;52.246;14.408;2023-04-16T13:44:28;3.40;;;2.80;;
44508;SDS011;30214;52.246;14.408;2023-04-16T13:46:55;4.85;;;3.45;;
44508;SDS011;30214;52.246;14.408;2023-04-16T13:49:22;4.63;;;3.03;;
44508;SDS011;30214;52.246;14.408;2023-04-16T13:51:49;4.25;;;3.00;;
44508;SDS011;30214;52.246;14.408;2023-04-16T13:54:20;5.53;;;3.13;;
44508;SDS011;30214;52.246;14.408;2023-04-16T13:56:48;4.32;;;3.10;;
44508;SDS011;30214;52.246;14.408;2023-04-16T13:59:16;3.80;;;3.25;;
44508;SDS011;30214;52.246;14.408;2023-04-16T14:01:43;4.20;;;3.45;;
44508;SDS011;30214;52.246;14.408;2023-04-16T14:04:10;6.60;;;3.63;;
44508;SDS011;30214;52.246;14.408;2023-04-16T14:06:37;4.75;;;3.65;;
44508;SDS011;30214;52.246;14.408;2023-04-16T14:09:04;5.15;;;3.50;;
44508;SDS011;30214;52.246;14.408;2023-04-16T14:11:34;5.75;;;3.28;;
44508;SDS011;30214;52.246;14.408;2023-04-16T14:14:02;4.18;;;2.90;;
44508;SDS011;30214;52.246;14.408;2023-04-16T14:16:29;4.10;;;3.10;;
44508;SDS011;30214;52.246;14.408;2023-04-16T14:18:56;5.10;;;3.55;;
44508;SDS011;30214;52.246;14.408;2023-04-16T14:21:23;4.93;;;3.15;;
44508;SDS011;30214;52.246;14.408;2023-04-16T14:23:51;4.25;;;3.50;;
44508;SDS011;30214;52.246;14.408;2023-04-16T14:26:18;3.83;;;3.22;;
44508;SDS011;30214;52.246;14.408;2023-04-16T14:28:47;5.03;;;3.80;;
44508;SDS011;30214;52.246;14.408;2023-04-16T14:31:16;7.18;;;4.28;;
44508;SDS011;30214;52.246;14.408;2023-04-16T14:33:44;5.68;;;4.30;;
44508;SDS011;30214;52.246;14.408;2023-04-16T14:36:11;6.78;;;4.50;;
44508;SDS011;30214;52.246;14.408;2023-04-16T14:38:38;8.35;;;5.13;;
44508;SDS011;30214;52.246;14.408;2023-04-16T14:41:07;7.63;;;4.90;;